createdAt,value
2018-04-14T00:01:18.509Z,5.80
2018-04-14T00:03:46.345Z,5.10
2018-04-14T00:06:14.221Z,5.53
2018-04-14T00:08:42.900Z,5.80
2018-04-14T00:11:10.816Z,4.90
2018-04-14T00:13:38.628Z,5.53
2018-04-14T00:16:07.762Z,4.63
2018-04-14T00:18:35.582Z,5.10
2018-04-14T00:21:03.424Z,4.50
2018-04-14T00:23:31.283Z,5.00
2018-04-14T00:25:59.126Z,4.80
2018-04-14T00:28:27.695Z,4.57
2018-04-14T00:30:55.549Z,4.83
2018-04-14T00:33:23.343Z,6.30
2018-04-14T00:35:51.156Z,6.20
2018-04-14T00:38:18.947Z,7.47
2018-04-14T00:40:46.789Z,6.03
2018-04-14T00:43:14.590Z,5.40
2018-04-14T00:45:42.350Z,5.77
2018-04-14T00:48:10.134Z,5.10
2018-04-14T00:50:38.010Z,4.60
2018-04-14T00:53:17.642Z,5.00
2018-04-14T00:55:45.486Z,4.87
2018-04-14T00:58:13.434Z,5.10
2018-04-14T01:00:41.302Z,5.40
2018-04-14T01:03:10.031Z,5.33
2018-04-14T01:05:45.861Z,5.80
2018-04-14T01:08:13.647Z,4.60
2018-04-14T01:10:41.425Z,5.20
2018-04-14T01:13:09.277Z,6.40
2018-04-14T01:15:37.118Z,5.80
2018-04-14T01:18:05.089Z,5.80
2018-04-14T01:20:32.957Z,5.53
2018-04-14T01:23:00.797Z,5.00
2018-04-14T01:25:28.747Z,5.90
2018-04-14T01:27:56.582Z,5.93
2018-04-14T01:30:24.400Z,5.27
2018-04-14T01:32:52.941Z,5.50
2018-04-14T01:35:20.771Z,4.93
2018-04-14T01:37:49.409Z,4.60
2018-04-14T01:40:17.237Z,5.40
2018-04-14T01:42:45.129Z,4.90
2018-04-14T01:45:12.992Z,4.70
2018-04-14T01:47:40.796Z,5.30
2018-04-14T01:50:08.716Z,4.60
2018-04-14T01:52:36.631Z,5.10
2018-04-14T01:55:04.515Z,5.70
2018-04-14T01:57:32.560Z,4.30
2018-04-14T02:00:00.420Z,5.10
2018-04-14T02:02:28.283Z,4.90
2018-04-14T02:04:56.101Z,5.27
2018-04-14T02:07:23.907Z,5.20
2018-04-14T02:09:51.782Z,4.23
2018-04-14T02:12:19.565Z,4.57
2018-04-14T02:14:47.387Z,3.57
2018-04-14T02:17:16.012Z,4.27
2018-04-14T02:19:43.815Z,4.23
2018-04-14T02:22:11.625Z,4.17
2018-04-14T02:24:39.428Z,5.10
2018-04-14T02:27:07.246Z,4.17
2018-04-14T02:29:35.817Z,4.40
2018-04-14T02:32:03.649Z,4.60
2018-04-14T02:34:31.436Z,4.60
2018-04-14T02:36:59.314Z,5.70
2018-04-14T02:39:27.867Z,4.30
2018-04-14T02:41:55.677Z,3.70
2018-04-14T02:44:23.430Z,5.40
2018-04-14T02:46:51.229Z,5.43
2018-04-14T02:49:18.998Z,4.97
2018-04-14T02:51:47.552Z,4.07
2018-04-14T02:54:15.395Z,4.73
2018-04-14T02:56:43.205Z,4.87
2018-04-14T02:59:11.766Z,5.40
2018-04-14T03:01:40.603Z,5.20
2018-04-14T03:04:08.439Z,4.77
2018-04-14T03:06:36.217Z,4.97
2018-04-14T03:09:05.575Z,5.70
2018-04-14T03:11:33.328Z,4.57
2018-04-14T03:14:01.099Z,4.53
2018-04-14T03:16:28.933Z,5.53
2018-04-14T03:18:57.575Z,4.53
2018-04-14T03:21:25.449Z,5.80
2018-04-14T03:23:53.314Z,5.03
2018-04-14T03:26:21.308Z,5.07
2018-04-14T03:28:49.836Z,5.63
2018-04-14T03:31:17.654Z,6.37
2018-04-14T03:33:45.485Z,5.50
2018-04-14T03:36:13.268Z,6.00
2018-04-14T03:38:41.082Z,6.00
2018-04-14T03:41:09.704Z,5.80
2018-04-14T03:43:37.532Z,5.63
2018-04-14T03:46:06.120Z,6.40
2018-04-14T03:48:34.734Z,7.10
2018-04-14T03:51:02.562Z,6.43
2018-04-14T03:53:30.454Z,5.27
2018-04-14T03:55:59.012Z,5.40
2018-04-14T03:58:27.035Z,7.00
2018-04-14T04:00:54.842Z,7.20
2018-04-14T04:03:22.584Z,5.33
2018-04-14T04:05:50.379Z,6.50
2018-04-14T04:08:18.197Z,5.73
2018-04-14T04:10:45.975Z,5.20
2018-04-14T04:13:13.738Z,5.80
2018-04-14T04:15:41.603Z,5.40
2018-04-14T04:18:09.428Z,5.93
2018-04-14T04:21:02.850Z,5.70
2018-04-14T04:23:49.131Z,6.07
2018-04-14T04:26:16.972Z,6.03
2018-04-14T04:28:45.555Z,7.33
2018-04-14T04:31:16.935Z,12.40
2018-04-14T04:33:44.756Z,11.63
2018-04-14T04:36:12.584Z,9.87
2018-04-14T04:38:40.395Z,9.13
2018-04-14T04:41:08.160Z,11.70
2018-04-14T04:43:36.730Z,8.93
2018-04-14T04:46:04.534Z,7.03
2018-04-14T04:48:32.332Z,6.60
2018-04-14T04:51:00.059Z,7.63
2018-04-14T04:53:27.807Z,7.47
2018-04-14T04:55:55.594Z,6.30
2018-04-14T04:58:23.371Z,7.53
2018-04-14T05:00:51.126Z,6.57
2018-04-14T05:03:18.886Z,5.77
2018-04-14T05:05:46.677Z,5.70
2018-04-14T05:08:15.729Z,5.57
2018-04-14T05:10:45.878Z,6.07
2018-04-14T05:13:16.980Z,5.80
2018-04-14T05:15:47.755Z,5.70
2018-04-14T05:18:18.734Z,5.50
2018-04-14T05:20:48.908Z,5.13
2018-04-14T05:23:19.946Z,6.00
2018-04-14T05:25:50.492Z,6.60
2018-04-14T05:28:22.283Z,6.17
2018-04-14T05:30:52.254Z,7.13
2018-04-14T05:33:23.043Z,6.30
2018-04-14T05:35:53.834Z,6.93
2018-04-14T05:38:23.753Z,7.33
2018-04-14T05:40:55.199Z,6.40
2018-04-14T05:43:25.899Z,6.43
2018-04-14T05:45:56.391Z,6.60
2018-04-14T05:48:27.024Z,6.83
2018-04-14T05:50:57.590Z,6.80
2018-04-14T05:53:27.793Z,7.67
2018-04-14T05:55:58.240Z,6.43
2018-04-14T05:58:27.703Z,7.20
2018-04-14T06:00:57.526Z,7.83
2018-04-14T06:03:27.658Z,8.63
2018-04-14T06:05:58.152Z,9.57
2018-04-14T06:08:27.798Z,9.70
2018-04-14T06:10:58.521Z,8.90
2018-04-14T06:13:28.242Z,9.33
2018-04-14T06:15:59.225Z,9.50
2018-04-14T06:18:28.968Z,9.90
2018-04-14T06:20:57.869Z,10.07
2018-04-14T06:23:26.177Z,11.47
2018-04-14T06:25:54.125Z,13.10
2018-04-14T06:28:22.451Z,11.60
2018-04-14T06:30:51.661Z,11.90
2018-04-14T06:33:19.515Z,11.30
2018-04-14T06:35:49.060Z,12.77
2018-04-14T06:38:17.413Z,13.50
2018-04-14T06:40:46.567Z,14.77
2018-04-14T06:43:15.473Z,14.30
2018-04-14T06:45:44.108Z,14.20
2018-04-14T06:48:13.071Z,15.73
2018-04-14T06:50:41.643Z,13.57
2018-04-14T06:53:09.466Z,15.23
2018-04-14T06:55:37.355Z,14.80
2018-04-14T06:58:05.218Z,16.00
2018-04-14T07:00:33.030Z,17.60
2018-04-14T07:03:00.808Z,18.07
2018-04-14T07:05:29.421Z,17.00
2018-04-14T07:07:57.252Z,17.40
2018-04-14T07:10:25.110Z,17.10
2018-04-14T07:12:52.906Z,17.60
2018-04-14T07:15:20.686Z,17.60
2018-04-14T07:17:48.442Z,16.70
2018-04-14T07:20:16.187Z,20.27
2018-04-14T07:22:44.663Z,21.37
2018-04-14T07:25:12.394Z,20.43
2018-04-14T07:27:40.252Z,18.93
2018-04-14T07:30:09.450Z,22.70
2018-04-14T07:32:37.301Z,21.10
2018-04-14T07:35:06.415Z,20.73
2018-04-14T07:37:36.331Z,19.77
2018-04-14T07:40:06.430Z,19.40
2018-04-14T07:42:34.457Z,19.50
2018-04-14T07:45:02.370Z,18.53
2018-04-14T07:47:30.313Z,20.27
2018-04-14T07:49:58.187Z,17.60
2018-04-14T07:52:26.865Z,19.90
2018-04-14T07:54:54.885Z,20.03
2018-04-14T07:57:22.739Z,20.23
2018-04-14T08:00:02.605Z,19.67
2018-04-14T08:02:31.739Z,21.33
2018-04-14T08:04:59.560Z,19.10
2018-04-14T08:07:27.364Z,19.70
2018-04-14T08:09:55.489Z,19.87
2018-04-14T08:12:23.377Z,18.80
2018-04-14T08:14:51.190Z,21.30
2018-04-14T08:17:19.111Z,20.90
2018-04-14T08:19:46.919Z,16.60
2018-04-14T08:22:15.527Z,15.67
2018-04-14T08:24:43.481Z,17.13
2018-04-14T08:27:12.123Z,15.47
2018-04-14T08:29:40.665Z,14.80
2018-04-14T08:32:09.858Z,14.37
2018-04-14T08:34:37.674Z,13.27
2018-04-14T08:37:05.583Z,13.50
2018-04-14T08:39:34.012Z,13.73
2018-04-14T08:44:40.959Z,12.60
2018-04-14T08:47:09.572Z,12.93
2018-04-14T08:49:37.614Z,11.60
2018-04-14T08:52:05.544Z,13.80
2018-04-14T08:54:34.195Z,14.73
2018-04-14T08:57:02.134Z,13.03
2018-04-14T08:59:29.899Z,13.67
2018-04-14T09:01:59.508Z,11.43
2018-04-14T09:04:27.422Z,12.40
2018-04-14T09:06:57.511Z,13.33
2018-04-14T09:09:27.839Z,12.57
2018-04-14T09:11:55.608Z,14.30
2018-04-14T09:14:23.475Z,14.90
2018-04-14T09:16:52.309Z,13.93
2018-04-14T09:19:26.025Z,12.40
2018-04-14T09:21:55.489Z,13.20
2018-04-14T09:24:27.147Z,13.07
2018-04-14T09:27:00.591Z,13.37
2018-04-14T09:29:28.705Z,12.00
2018-04-14T09:32:02.660Z,12.37
2018-04-14T09:34:33.798Z,12.93
2018-04-14T09:37:06.395Z,12.03
2018-04-14T09:58:18.402Z,9.20
2018-04-14T10:00:51.682Z,9.30
2018-04-14T10:03:24.198Z,8.90
2018-04-14T10:05:53.842Z,9.63
2018-04-14T10:08:21.722Z,10.30
2018-04-14T10:10:49.883Z,8.40
2018-04-14T10:13:21.342Z,9.83
2018-04-14T10:16:05.031Z,8.80
2018-04-14T10:18:37.954Z,9.43
2018-04-14T10:21:07.165Z,9.93
2018-04-14T10:23:35.819Z,8.10
2018-04-14T10:26:06.080Z,10.00
2018-04-14T10:28:34.633Z,7.57
2018-04-14T10:31:02.402Z,7.00
2018-04-14T10:33:30.181Z,7.40
2018-04-14T10:35:58.889Z,8.10
2018-04-14T10:38:27.427Z,9.50
2018-04-14T10:40:55.251Z,13.03
2018-04-14T10:43:25.543Z,10.23
2018-04-14T10:45:53.428Z,7.13
2018-04-14T10:48:31.524Z,7.10
2018-04-14T10:54:44.884Z,6.67
2018-04-14T10:57:12.670Z,6.10
2018-04-14T10:59:41.274Z,6.83
2018-04-14T11:02:09.037Z,6.10
2018-04-14T11:04:36.968Z,6.77
2018-04-14T11:07:21.198Z,4.87
2018-04-14T11:09:49.002Z,4.73
2018-04-14T11:12:16.884Z,4.20
2018-04-14T11:14:44.727Z,4.73
2018-04-14T11:17:12.726Z,3.67
2018-04-14T11:19:41.251Z,3.43
2018-04-14T11:22:09.031Z,3.00
2018-04-14T11:24:36.868Z,3.20
2018-04-14T11:27:04.641Z,2.93
2018-04-14T11:29:32.478Z,3.00
2018-04-14T11:32:01.037Z,3.63
2018-04-14T11:34:28.850Z,4.57
2018-04-14T11:37:07.577Z,4.40
2018-04-14T11:39:36.169Z,3.87
2018-04-14T11:42:04.467Z,3.83
2018-04-14T11:44:33.740Z,3.43
2018-04-14T11:47:01.721Z,4.77
2018-04-14T11:49:31.669Z,4.47
2018-04-14T11:52:00.758Z,4.70
2018-04-14T11:54:28.677Z,4.83
2018-04-14T11:56:56.893Z,4.50
2018-04-14T11:59:25.222Z,5.27
2018-04-14T12:01:53.501Z,4.83
2018-04-14T12:04:23.529Z,5.27
2018-04-14T12:06:52.963Z,4.73
2018-04-14T12:09:22.772Z,4.77
2018-04-14T12:11:51.552Z,5.13
2018-04-14T12:14:21.130Z,4.10
2018-04-14T12:16:49.677Z,4.37
2018-04-14T12:19:18.614Z,5.00
2018-04-14T12:21:47.056Z,4.40
2018-04-14T12:24:16.406Z,5.20
2018-04-14T12:26:46.636Z,5.90
2018-04-14T12:29:15.864Z,5.40
2018-04-14T12:31:44.150Z,5.00
2018-04-14T12:34:13.815Z,4.97
2018-04-14T12:36:42.070Z,4.20
2018-04-14T12:39:30.302Z,4.10
2018-04-14T12:42:16.769Z,5.10
2018-04-14T12:45:32.956Z,4.77
2018-04-14T12:48:01.115Z,4.10
2018-04-14T12:50:32.325Z,4.40
2018-04-14T12:53:04.398Z,4.90
2018-04-14T12:55:33.363Z,5.03
2018-04-14T12:58:04.371Z,5.00
2018-04-14T13:00:36.527Z,3.80
2018-04-14T13:03:05.460Z,3.80
2018-04-14T13:05:35.025Z,3.23
2018-04-14T13:08:05.645Z,3.13
2018-04-14T13:10:37.867Z,3.87
2018-04-14T13:13:11.866Z,3.13
2018-04-14T13:15:40.810Z,3.03
2018-04-14T13:21:44.105Z,2.60
2018-04-14T13:24:13.295Z,2.70
